sensor_id;sensor_type;location;lat;lon;timestamp;P1;P2;P0
71858;PMS5003;59713;50.866;4.324;2022-12-07T00:02:18;23;22;
71858;PMS5003;59713;50.866;4.324;2022-12-07T00:05:17;31;22;
71858;PMS5003;59713;50.866;4.324;2022-12-07T00:08:17;19;19;
71858;PMS5003;59713;50.866;4.324;2022-12-07T00:11:18;21;17;
71858;PMS5003;59713;50.866;4.324;2022-12-07T00:14:18;28;25;
71858;PMS5003;59713;50.866;4.324;2022-12-07T00:17:17;30;26;
71858;PMS5003;59713;50.866;4.324;2022-12-07T00:20:17;29;25;
71858;PMS5003;59713;50.866;4.324;2022-12-07T00:23:17;25;21;
71858;PMS5003;59713;50.866;4.324;2022-12-07T00:26:19;23;21;
71858;PMS5003;59713;50.866;4.324;2022-12-07T00:29:19;27;24;
71858;PMS5003;59713;50.866;4.324;2022-12-07T00:32:17;23;21;
71858;PMS5003;59713;50.866;4.324;2022-12-07T00:35:17;29;24;
71858;PMS5003;59713;50.866;4.324;2022-12-07T00:38:17;28;25;
71858;PMS5003;59713;50.866;4.324;2022-12-07T00:41:40;29;24;
71858;PMS5003;59713;50.866;4.324;2022-12-07T00:44:17;31;25;
71858;PMS5003;59713;50.866;4.324;2022-12-07T00:47:17;28;24;
71858;PMS5003;59713;50.866;4.324;2022-12-07T00:50:22;30;27;
71858;PMS5003;59713;50.866;4.324;2022-12-07T00:53:18;29;25;
71858;PMS5003;59713;50.866;4.324;2022-12-07T00:56:19;30;26;
71858;PMS5003;59713;50.866;4.324;2022-12-07T00:59:17;25;24;
71858;PMS5003;59713;50.866;4.324;2022-12-07T01:02:19;24;22;
71858;PMS5003;59713;50.866;4.324;2022-12-07T01:05:18;29;26;
71858;PMS5003;59713;50.866;4.324;2022-12-07T01:08:22;27;25;
71858;PMS5003;59713;50.866;4.324;2022-12-07T01:11:19;26;23;
71858;PMS5003;59713;50.866;4.324;2022-12-07T01:14:18;30;26;
71858;PMS5003;59713;50.866;4.324;2022-12-07T01:17:20;25;22;
71858;PMS5003;59713;50.866;4.324;2022-12-07T01:20:17;26;24;
71858;PMS5003;59713;50.866;4.324;2022-12-07T01:23:17;25;23;
71858;PMS5003;59713;50.866;4.324;2022-12-07T01:26:18;37;26;
71858;PMS5003;59713;50.866;4.324;2022-12-07T01:29:17;26;23;
71858;PMS5003;59713;50.866;4.324;2022-12-07T01:32:17;21;19;
71858;PMS5003;59713;50.866;4.324;2022-12-07T01:35:17;30;27;
71858;PMS5003;59713;50.866;4.324;2022-12-07T01:38:18;27;26;
71858;PMS5003;59713;50.866;4.324;2022-12-07T01:41:18;35;25;
71858;PMS5003;59713;50.866;4.324;2022-12-07T01:44:19;25;23;
71858;PMS5003;59713;50.866;4.324;2022-12-07T01:47:17;28;25;
71858;PMS5003;59713;50.866;4.324;2022-12-07T01:50:17;30;26;
71858;PMS5003;59713;50.866;4.324;2022-12-07T01:53:17;31;29;
71858;PMS5003;59713;50.866;4.324;2022-12-07T01:56:18;27;27;
71858;PMS5003;59713;50.866;4.324;2022-12-07T01:59:17;26;24;
71858;PMS5003;59713;50.866;4.324;2022-12-07T02:08:36;27;22;
71858;PMS5003;59713;50.866;4.324;2022-12-07T02:11:17;32;30;
71858;PMS5003;59713;50.866;4.324;2022-12-07T02:14:17;29;29;
71858;PMS5003;59713;50.866;4.324;2022-12-07T02:17:19;27;25;
71858;PMS5003;59713;50.866;4.324;2022-12-07T02:20:21;36;32;
71858;PMS5003;59713;50.866;4.324;2022-12-07T02:23:25;35;31;
71858;PMS5003;59713;50.866;4.324;2022-12-07T02:26:24;29;26;
71858;PMS5003;59713;50.866;4.324;2022-12-07T02:29:20;26;23;
71858;PMS5003;59713;50.866;4.324;2022-12-07T02:32:18;25;22;
71858;PMS5003;59713;50.866;4.324;2022-12-07T02:35:18;29;27;
71858;PMS5003;59713;50.866;4.324;2022-12-07T02:38:25;24;24;
71858;PMS5003;59713;50.866;4.324;2022-12-07T02:41:24;27;27;
71858;PMS5003;59713;50.866;4.324;2022-12-07T02:50:18;23;23;
71858;PMS5003;59713;50.866;4.324;2022-12-07T02:53:31;26;23;
71858;PMS5003;59713;50.866;4.324;2022-12-07T02:56:19;23;22;
71858;PMS5003;59713;50.866;4.324;2022-12-07T02:59:22;21;21;
71858;PMS5003;59713;50.866;4.324;2022-12-07T03:02:19;26;23;
71858;PMS5003;59713;50.866;4.324;2022-12-07T03:05:22;21;20;
71858;PMS5003;59713;50.866;4.324;2022-12-07T03:08:21;26;23;
71858;PMS5003;59713;50.866;4.324;2022-12-07T03:11:25;25;19;
71858;PMS5003;59713;50.866;4.324;2022-12-07T03:14:18;21;19;
71858;PMS5003;59713;50.866;4.324;2022-12-07T03:17:18;23;22;
71858;PMS5003;59713;50.866;4.324;2022-12-07T03:20:19;24;21;
71858;PMS5003;59713;50.866;4.324;2022-12-07T03:23:18;27;23;
71858;PMS5003;59713;50.866;4.324;2022-12-07T03:26:18;22;19;
71858;PMS5003;59713;50.866;4.324;2022-12-07T03:29:30;21;21;
71858;PMS5003;59713;50.866;4.324;2022-12-07T03:35:20;23;20;
71858;PMS5003;59713;50.866;4.324;2022-12-07T03:38:22;22;22;
71858;PMS5003;59713;50.866;4.324;2022-12-07T03:41:18;26;22;
71858;PMS5003;59713;50.866;4.324;2022-12-07T03:44:18;27;22;
71858;PMS5003;59713;50.866;4.324;2022-12-07T03:47:20;21;19;
71858;PMS5003;59713;50.866;4.324;2022-12-07T03:50:20;22;19;
71858;PMS5003;59713;50.866;4.324;2022-12-07T03:56:18;15;12;
71858;PMS5003;59713;50.866;4.324;2022-12-07T03:59:19;16;16;
71858;PMS5003;59713;50.866;4.324;2022-12-07T04:02:18;20;17;
71858;PMS5003;59713;50.866;4.324;2022-12-07T04:05:18;14;14;
71858;PMS5003;59713;50.866;4.324;2022-12-07T04:08:19;20;19;
71858;PMS5003;59713;50.866;4.324;2022-12-07T04:11:18;23;22;
71858;PMS5003;59713;50.866;4.324;2022-12-07T04:14:18;24;22;
71858;PMS5003;59713;50.866;4.324;2022-12-07T04:17:19;23;22;
71858;PMS5003;59713;50.866;4.324;2022-12-07T04:20:21;16;14;
71858;PMS5003;59713;50.866;4.324;2022-12-07T04:23:19;17;15;
71858;PMS5003;59713;50.866;4.324;2022-12-07T04:26:18;22;22;
71858;PMS5003;59713;50.866;4.324;2022-12-07T04:29:18;17;15;
71858;PMS5003;59713;50.866;4.324;2022-12-07T04:32:19;21;18;
71858;PMS5003;59713;50.866;4.324;2022-12-07T04:35:18;25;23;
71858;PMS5003;59713;50.866;4.324;2022-12-07T04:38:18;23;22;
71858;PMS5003;59713;50.866;4.324;2022-12-07T04:41:21;21;21;
71858;PMS5003;59713;50.866;4.324;2022-12-07T04:44:18;13;13;
71858;PMS5003;59713;50.866;4.324;2022-12-07T04:47:18;25;20;
71858;PMS5003;59713;50.866;4.324;2022-12-07T04:50:18;21;21;
71858;PMS5003;59713;50.866;4.324;2022-12-07T04:53:18;25;21;
71858;PMS5003;59713;50.866;4.324;2022-12-07T04:56:18;24;23;
71858;PMS5003;59713;50.866;4.324;2022-12-07T04:59:18;19;19;
71858;PMS5003;59713;50.866;4.324;2022-12-07T05:02:19;22;19;
71858;PMS5003;59713;50.866;4.324;2022-12-07T05:05:18;23;20;
71858;PMS5003;59713;50.866;4.324;2022-12-07T05:08:18;28;26;
71858;PMS5003;59713;50.866;4.324;2022-12-07T05:14:19;25;22;
71858;PMS5003;59713;50.866;4.324;2022-12-07T05:17:18;17;17;
71858;PMS5003;59713;50.866;4.324;2022-12-07T05:20:18;21;20;
71858;PMS5003;59713;50.866;4.324;2022-12-07T05:23:18;23;22;
71858;PMS5003;59713;50.866;4.324;2022-12-07T05:26:18;31;29;
71858;PMS5003;59713;50.866;4.324;2022-12-07T05:29:18;23;22;
71858;PMS5003;59713;50.866;4.324;2022-12-07T05:35:18;22;22;
71858;PMS5003;59713;50.866;4.324;2022-12-07T05:38:19;13;12;
71858;PMS5003;59713;50.866;4.324;2022-12-07T05:41:18;14;14;
71858;PMS5003;59713;50.866;4.324;2022-12-07T05:44:18;22;20;
71858;PMS5003;59713;50.866;4.324;2022-12-07T05:47:18;20;18;
71858;PMS5003;59713;50.866;4.324;2022-12-07T05:50:18;19;17;
71858;PMS5003;59713;50.866;4.324;2022-12-07T05:56:18;18;17;
71858;PMS5003;59713;50.866;4.324;2022-12-07T05:59:18;13;12;
71858;PMS5003;59713;50.866;4.324;2022-12-07T06:02:18;17;16;
71858;PMS5003;59713;50.866;4.324;2022-12-07T06:05:19;16;14;
71858;PMS5003;59713;50.866;4.324;2022-12-07T06:08:19;19;19;
71858;PMS5003;59713;50.866;4.324;2022-12-07T06:11:18;17;15;
71858;PMS5003;59713;50.866;4.324;2022-12-07T06:17:18;20;17;
71858;PMS5003;59713;50.866;4.324;2022-12-07T06:20:18;22;17;
71858;PMS5003;59713;50.866;4.324;2022-12-07T06:23:18;19;17;
71858;PMS5003;59713;50.866;4.324;2022-12-07T06:29:18;16;15;
71858;PMS5003;59713;50.866;4.324;2022-12-07T06:32:18;18;16;
71858;PMS5003;59713;50.866;4.324;2022-12-07T06:35:18;23;18;
71858;PMS5003;59713;50.866;4.324;2022-12-07T06:38:19;22;19;
71858;PMS5003;59713;50.866;4.324;2022-12-07T06:41:29;20;20;
71858;PMS5003;59713;50.866;4.324;2022-12-07T06:44:18;21;18;
71858;PMS5003;59713;50.866;4.324;2022-12-07T06:47:18;26;24;
71858;PMS5003;59713;50.866;4.324;2022-12-07T06:50:18;25;21;
71858;PMS5003;59713;50.866;4.324;2022-12-07T06:53:18;26;23;
71858;PMS5003;59713;50.866;4.324;2022-12-07T06:56:18;24;20;
71858;PMS5003;59713;50.866;4.324;2022-12-07T06:59:18;21;18;
71858;PMS5003;59713;50.866;4.324;2022-12-07T07:02:18;23;20;
71858;PMS5003;59713;50.866;4.324;2022-12-07T07:05:18;27;23;
71858;PMS5003;59713;50.866;4.324;2022-12-07T07:08:18;24;23;
71858;PMS5003;59713;50.866;4.324;2022-12-07T07:11:18;26;21;
71858;PMS5003;59713;50.866;4.324;2022-12-07T07:14:18;24;20;
71858;PMS5003;59713;50.866;4.324;2022-12-07T07:17:18;22;20;
71858;PMS5003;59713;50.866;4.324;2022-12-07T07:23:18;26;22;
71858;PMS5003;59713;50.866;4.324;2022-12-07T07:26:18;24;23;
71858;PMS5003;59713;50.866;4.324;2022-12-07T07:29:18;23;21;
71858;PMS5003;59713;50.866;4.324;2022-12-07T07:32:18;21;19;
71858;PMS5003;59713;50.866;4.324;2022-12-07T07:38:18;20;19;
71858;PMS5003;59713;50.866;4.324;2022-12-07T07:41:18;21;20;
71858;PMS5003;59713;50.866;4.324;2022-12-07T07:44:20;26;22;
71858;PMS5003;59713;50.866;4.324;2022-12-07T07:47:18;23;22;
71858;PMS5003;59713;50.866;4.324;2022-12-07T07:50:18;27;24;
71858;PMS5003;59713;50.866;4.324;2022-12-07T07:53:18;25;23;
71858;PMS5003;59713;50.866;4.324;2022-12-07T07:56:18;24;22;
71858;PMS5003;59713;50.866;4.324;2022-12-07T07:59:18;26;21;
71858;PMS5003;59713;50.866;4.324;2022-12-07T08:02:18;24;20;
71858;PMS5003;59713;50.866;4.324;2022-12-07T08:05:18;20;20;
71858;PMS5003;59713;50.866;4.324;2022-12-07T08:08:18;21;20;
71858;PMS5003;59713;50.866;4.324;2022-12-07T08:11:18;22;18;
71858;PMS5003;59713;50.866;4.324;2022-12-07T08:14:18;16;13;
71858;PMS5003;59713;50.866;4.324;2022-12-07T08:17:18;22;20;
71858;PMS5003;59713;50.866;4.324;2022-12-07T08:20:18;24;20;
71858;PMS5003;59713;50.866;4.324;2022-12-07T08:23:18;23;20;
71858;PMS5003;59713;50.866;4.324;2022-12-07T08:26:18;25;23;
71858;PMS5003;59713;50.866;4.324;2022-12-07T08:29:18;22;22;
71858;PMS5003;59713;50.866;4.324;2022-12-07T08:32:18;26;24;
71858;PMS5003;59713;50.866;4.324;2022-12-07T08:35:29;28;24;
71858;PMS5003;59713;50.866;4.324;2022-12-07T08:38:18;24;23;
71858;PMS5003;59713;50.866;4.324;2022-12-07T08:44:18;29;23;
71858;PMS5003;59713;50.866;4.324;2022-12-07T08:47:18;15;12;
71858;PMS5003;59713;50.866;4.324;2022-12-07T08:50:18;19;19;
71858;PMS5003;59713;50.866;4.324;2022-12-07T08:53:29;15;15;
71858;PMS5003;59713;50.866;4.324;2022-12-07T08:59:18;18;18;
71858;PMS5003;59713;50.866;4.324;2022-12-07T09:02:18;19;19;
71858;PMS5003;59713;50.866;4.324;2022-12-07T09:05:18;22;19;
71858;PMS5003;59713;50.866;4.324;2022-12-07T09:08:18;8;8;
71858;PMS5003;59713;50.866;4.324;2022-12-07T09:11:18;21;18;
71858;PMS5003;59713;50.866;4.324;2022-12-07T09:14:22;18;17;
71858;PMS5003;59713;50.866;4.324;2022-12-07T09:17:18;14;13;
71858;PMS5003;59713;50.866;4.324;2022-12-07T09:20:18;21;16;
71858;PMS5003;59713;50.866;4.324;2022-12-07T09:29:18;19;16;
71858;PMS5003;59713;50.866;4.324;2022-12-07T09:32:18;14;13;
71858;PMS5003;59713;50.866;4.324;2022-12-07T09:38:19;15;13;
71858;PMS5003;59713;50.866;4.324;2022-12-07T09:41:18;13;13;
71858;PMS5003;59713;50.866;4.324;2022-12-07T09:44:20;18;14;
71858;PMS5003;59713;50.866;4.324;2022-12-07T09:47:18;15;13;
71858;PMS5003;59713;50.866;4.324;2022-12-07T09:50:27;11;11;
71858;PMS5003;59713;50.866;4.324;2022-12-07T09:53:20;15;13;
71858;PMS5003;59713;50.866;4.324;2022-12-07T09:56:20;20;18;
71858;PMS5003;59713;50.866;4.324;2022-12-07T09:59:20;16;16;
71858;PMS5003;59713;50.866;4.324;2022-12-07T10:02:31;17;14;
71858;PMS5003;59713;50.866;4.324;2022-12-07T10:05:19;18;16;
71858;PMS5003;59713;50.866;4.324;2022-12-07T10:11:18;16;15;
71858;PMS5003;59713;50.866;4.324;2022-12-07T10:14:18;28;23;
71858;PMS5003;59713;50.866;4.324;2022-12-07T10:17:27;21;18;
71858;PMS5003;59713;50.866;4.324;2022-12-07T10:20:22;16;14;
71858;PMS5003;59713;50.866;4.324;2022-12-07T10:23:18;21;18;
71858;PMS5003;59713;50.866;4.324;2022-12-07T10:26:20;18;14;
71858;PMS5003;59713;50.866;4.324;2022-12-07T10:32:31;16;14;
71858;PMS5003;59713;50.866;4.324;2022-12-07T10:41:19;15;13;
71858;PMS5003;59713;50.866;4.324;2022-12-07T10:44:20;11;11;
71858;PMS5003;59713;50.866;4.324;2022-12-07T10:50:29;15;10;
71858;PMS5003;59713;50.866;4.324;2022-12-07T10:53:23;8;8;
71858;PMS5003;59713;50.866;4.324;2022-12-07T10:56:22;12;11;
71858;PMS5003;59713;50.866;4.324;2022-12-07T11:02:23;17;13;
71858;PMS5003;59713;50.866;4.324;2022-12-07T11:05:20;9;9;
71858;PMS5003;59713;50.866;4.324;2022-12-07T11:08:21;10;10;
71858;PMS5003;59713;50.866;4.324;2022-12-07T11:11:19;15;12;
71858;PMS5003;59713;50.866;4.324;2022-12-07T11:14:19;12;9;
71858;PMS5003;59713;50.866;4.324;2022-12-07T11:17:20;16;11;
71858;PMS5003;59713;50.866;4.324;2022-12-07T11:20:23;7;6;
71858;PMS5003;59713;50.866;4.324;2022-12-07T11:23:21;13;10;
71858;PMS5003;59713;50.866;4.324;2022-12-07T11:26:21;9;9;
71858;PMS5003;59713;50.866;4.324;2022-12-07T11:29:24;12;11;
71858;PMS5003;59713;50.866;4.324;2022-12-07T11:32:21;14;12;
71858;PMS5003;59713;50.866;4.324;2022-12-07T11:35:21;12;10;
71858;PMS5003;59713;50.866;4.324;2022-12-07T11:38:20;13;12;
71858;PMS5003;59713;50.866;4.324;2022-12-07T11:41:20;18;15;
71858;PMS5003;59713;50.866;4.324;2022-12-07T11:44:22;11;11;
71858;PMS5003;59713;50.866;4.324;2022-12-07T11:47:20;19;13;
71858;PMS5003;59713;50.866;4.324;2022-12-07T11:50:23;13;9;
71858;PMS5003;59713;50.866;4.324;2022-12-07T11:53:19;10;10;
71858;PMS5003;59713;50.866;4.324;2022-12-07T12:02:19;11;6;
71858;PMS5003;59713;50.866;4.324;2022-12-07T12:05:19;10;10;
71858;PMS5003;59713;50.866;4.324;2022-12-07T12:08:19;8;8;
71858;PMS5003;59713;50.866;4.324;2022-12-07T12:11:22;13;7;
71858;PMS5003;59713;50.866;4.324;2022-12-07T12:14:29;6;6;
71858;PMS5003;59713;50.866;4.324;2022-12-07T12:20:21;11;8;
71858;PMS5003;59713;50.866;4.324;2022-12-07T12:23:19;4;4;
71858;PMS5003;59713;50.866;4.324;2022-12-07T12:26:20;7;6;
71858;PMS5003;59713;50.866;4.324;2022-12-07T12:32:19;8;7;
71858;PMS5003;59713;50.866;4.324;2022-12-07T12:35:21;9;9;
71858;PMS5003;59713;50.866;4.324;2022-12-07T12:38:26;7;6;
71858;PMS5003;59713;50.866;4.324;2022-12-07T12:44:38;3;3;
71858;PMS5003;59713;50.866;4.324;2022-12-07T12:50:19;5;5;
71858;PMS5003;59713;50.866;4.324;2022-12-07T12:53:21;4;3;
71858;PMS5003;59713;50.866;4.324;2022-12-07T12:56:23;5;5;
71858;PMS5003;59713;50.866;4.324;2022-12-07T13:05:20;11;7;
71858;PMS5003;59713;50.866;4.324;2022-12-07T13:08:18;7;7;
71858;PMS5003;59713;50.866;4.324;2022-12-07T13:11:19;5;4;
71858;PMS5003;59713;50.866;4.324;2022-12-07T13:20:40;11;8;
71858;PMS5003;59713;50.866;4.324;2022-12-07T13:23:20;5;5;
71858;PMS5003;59713;50.866;4.324;2022-12-07T13:26:19;6;4;
71858;PMS5003;59713;50.866;4.324;2022-12-07T13:29:20;8;6;
71858;PMS5003;59713;50.866;4.324;2022-12-07T13:32:21;6;6;
71858;PMS5003;59713;50.866;4.324;2022-12-07T13:35:28;5;5;
71858;PMS5003;59713;50.866;4.324;2022-12-07T13:38:22;6;4;
71858;PMS5003;59713;50.866;4.324;2022-12-07T13:47:20;8;6;
71858;PMS5003;59713;50.866;4.324;2022-12-07T13:50:22;5;5;
71858;PMS5003;59713;50.866;4.324;2022-12-07T13:56:20;7;6;
71858;PMS5003;59713;50.866;4.324;2022-12-07T13:59:23;6;5;
71858;PMS5003;59713;50.866;4.324;2022-12-07T14:02:34;5;5;
71858;PMS5003;59713;50.866;4.324;2022-12-07T14:05:23;7;4;
71858;PMS5003;59713;50.866;4.324;2022-12-07T14:11:19;8;5;
71858;PMS5003;59713;50.866;4.324;2022-12-07T14:14:20;10;8;
71858;PMS5003;59713;50.866;4.324;2022-12-07T14:17:19;5;5;
71858;PMS5003;59713;50.866;4.324;2022-12-07T14:20:31;7;3;
71858;PMS5003;59713;50.866;4.324;2022-12-07T14:23:21;6;3;
71858;PMS5003;59713;50.866;4.324;2022-12-07T14:26:19;4;4;
71858;PMS5003;59713;50.866;4.324;2022-12-07T14:29:20;2;2;
71858;PMS5003;59713;50.866;4.324;2022-12-07T14:32:20;3;3;
71858;PMS5003;59713;50.866;4.324;2022-12-07T14:35:19;4;2;
71858;PMS5003;59713;50.866;4.324;2022-12-07T14:38:19;5;2;
71858;PMS5003;59713;50.866;4.324;2022-12-07T14:41:19;2;2;
71858;PMS5003;59713;50.866;4.324;2022-12-07T14:47:19;4;3;
71858;PMS5003;59713;50.866;4.324;2022-12-07T14:50:19;6;3;
71858;PMS5003;59713;50.866;4.324;2022-12-07T14:53:20;5;4;
71858;PMS5003;59713;50.866;4.324;2022-12-07T15:02:19;4;4;
71858;PMS5003;59713;50.866;4.324;2022-12-07T15:08:19;7;5;
71858;PMS5003;59713;50.866;4.324;2022-12-07T15:11:26;4;4;
71858;PMS5003;59713;50.866;4.324;2022-12-07T15:14:19;7;4;
71858;PMS5003;59713;50.866;4.324;2022-12-07T15:17:19;4;3;
71858;PMS5003;59713;50.866;4.324;2022-12-07T15:20:19;3;3;
71858;PMS5003;59713;50.866;4.324;2022-12-07T15:23:19;4;4;
71858;PMS5003;59713;50.866;4.324;2022-12-07T15:29:19;3;3;
71858;PMS5003;59713;50.866;4.324;2022-12-07T15:32:20;4;4;
71858;PMS5003;59713;50.866;4.324;2022-12-07T15:35:19;11;7;
71858;PMS5003;59713;50.866;4.324;2022-12-07T15:38:19;2;2;
71858;PMS5003;59713;50.866;4.324;2022-12-07T15:41:19;5;5;
71858;PMS5003;59713;50.866;4.324;2022-12-07T15:44:19;6;5;
71858;PMS5003;59713;50.866;4.324;2022-12-07T15:47:19;5;4;
71858;PMS5003;59713;50.866;4.324;2022-12-07T15:50:19;6;6;
71858;PMS5003;59713;50.866;4.324;2022-12-07T15:53:19;7;4;
71858;PMS5003;59713;50.866;4.324;2022-12-07T15:56:19;8;5;
71858;PMS5003;59713;50.866;4.324;2022-12-07T15:59:19;4;4;
71858;PMS5003;59713;50.866;4.324;2022-12-07T16:02:19;7;7;
71858;PMS5003;59713;50.866;4.324;2022-12-07T16:05:19;8;8;
71858;PMS5003;59713;50.866;4.324;2022-12-07T16:08:19;9;8;
71858;PMS5003;59713;50.866;4.324;2022-12-07T16:11:19;7;7;
71858;PMS5003;59713;50.866;4.324;2022-12-07T16:14:19;9;8;
71858;PMS5003;59713;50.866;4.324;2022-12-07T16:17:25;12;10;
71858;PMS5003;59713;50.866;4.324;2022-12-07T16:23:19;9;7;
71858;PMS5003;59713;50.866;4.324;2022-12-07T16:26:19;10;9;
71858;PMS5003;59713;50.866;4.324;2022-12-07T16:29:20;8;8;
71858;PMS5003;59713;50.866;4.324;2022-12-07T16:32:19;13;8;
71858;PMS5003;59713;50.866;4.324;2022-12-07T16:35:19;11;11;
71858;PMS5003;59713;50.866;4.324;2022-12-07T16:38:19;14;10;
71858;PMS5003;59713;50.866;4.324;2022-12-07T16:41:19;10;10;
71858;PMS5003;59713;50.866;4.324;2022-12-07T16:44:19;14;12;
71858;PMS5003;59713;50.866;4.324;2022-12-07T16:47:20;13;10;
71858;PMS5003;59713;50.866;4.324;2022-12-07T16:54:19;14;13;
71858;PMS5003;59713;50.866;4.324;2022-12-07T16:56:19;13;9;
71858;PMS5003;59713;50.866;4.324;2022-12-07T17:02:19;14;13;
71858;PMS5003;59713;50.866;4.324;2022-12-07T17:05:19;16;14;
71858;PMS5003;59713;50.866;4.324;2022-12-07T17:08:19;9;8;
71858;PMS5003;59713;50.866;4.324;2022-12-07T17:11:19;14;11;
71858;PMS5003;59713;50.866;4.324;2022-12-07T17:14:19;25;21;
71858;PMS5003;59713;50.866;4.324;2022-12-07T17:17:19;20;16;
71858;PMS5003;59713;50.866;4.324;2022-12-07T17:20:20;13;13;
71858;PMS5003;59713;50.866;4.324;2022-12-07T17:23:19;16;16;
71858;PMS5003;59713;50.866;4.324;2022-12-07T17:26:20;17;15;
71858;PMS5003;59713;50.866;4.324;2022-12-07T17:29:19;22;17;
71858;PMS5003;59713;50.866;4.324;2022-12-07T17:32:19;14;13;
71858;PMS5003;59713;50.866;4.324;2022-12-07T17:35:20;16;14;
71858;PMS5003;59713;50.866;4.324;2022-12-07T17:38:19;14;14;
71858;PMS5003;59713;50.866;4.324;2022-12-07T17:44:19;19;17;
71858;PMS5003;59713;50.866;4.324;2022-12-07T17:47:19;18;16;
71858;PMS5003;59713;50.866;4.324;2022-12-07T17:50:19;22;20;
71858;PMS5003;59713;50.866;4.324;2022-12-07T17:53:19;17;15;
71858;PMS5003;59713;50.866;4.324;2022-12-07T17:56:19;20;18;
71858;PMS5003;59713;50.866;4.324;2022-12-07T17:59:19;19;16;
71858;PMS5003;59713;50.866;4.324;2022-12-07T18:02:19;23;20;
71858;PMS5003;59713;50.866;4.324;2022-12-07T18:05:22;20;20;
71858;PMS5003;59713;50.866;4.324;2022-12-07T18:08:19;21;19;
71858;PMS5003;59713;50.866;4.324;2022-12-07T18:11:19;24;22;
71858;PMS5003;59713;50.866;4.324;2022-12-07T18:14:19;19;19;
71858;PMS5003;59713;50.866;4.324;2022-12-07T18:17:19;15;12;
71858;PMS5003;59713;50.866;4.324;2022-12-07T18:20:19;23;23;
71858;PMS5003;59713;50.866;4.324;2022-12-07T18:23:19;28;25;
71858;PMS5003;59713;50.866;4.324;2022-12-07T18:26:19;23;20;
71858;PMS5003;59713;50.866;4.324;2022-12-07T18:29:19;25;23;
71858;PMS5003;59713;50.866;4.324;2022-12-07T18:32:20;22;22;
71858;PMS5003;59713;50.866;4.324;2022-12-07T18:37:23;31;25;
71858;PMS5003;59713;50.866;4.324;2022-12-07T18:38:19;23;22;
71858;PMS5003;59713;50.866;4.324;2022-12-07T18:41:19;32;24;
71858;PMS5003;59713;50.866;4.324;2022-12-07T18:44:19;25;25;
71858;PMS5003;59713;50.866;4.324;2022-12-07T18:47:19;22;19;
71858;PMS5003;59713;50.866;4.324;2022-12-07T18:50:19;19;19;
71858;PMS5003;59713;50.866;4.324;2022-12-07T18:53:19;21;18;
71858;PMS5003;59713;50.866;4.324;2022-12-07T18:56:19;23;20;
71858;PMS5003;59713;50.866;4.324;2022-12-07T18:59:19;22;20;
71858;PMS5003;59713;50.866;4.324;2022-12-07T19:02:19;26;21;
71858;PMS5003;59713;50.866;4.324;2022-12-07T19:05:19;21;20;
71858;PMS5003;59713;50.866;4.324;2022-12-07T19:08:19;22;20;
71858;PMS5003;59713;50.866;4.324;2022-12-07T19:14:21;29;25;
71858;PMS5003;59713;50.866;4.324;2022-12-07T19:17:19;23;21;
71858;PMS5003;59713;50.866;4.324;2022-12-07T19:20:19;31;25;
71858;PMS5003;59713;50.866;4.324;2022-12-07T19:23:19;29;22;
71858;PMS5003;59713;50.866;4.324;2022-12-07T19:26:19;27;21;
71858;PMS5003;59713;50.866;4.324;2022-12-07T19:29:20;24;24;
71858;PMS5003;59713;50.866;4.324;2022-12-07T19:32:19;30;26;
71858;PMS5003;59713;50.866;4.324;2022-12-07T19:35:19;24;24;
71858;PMS5003;59713;50.866;4.324;2022-12-07T19:38:19;19;18;
71858;PMS5003;59713;50.866;4.324;2022-12-07T19:44:20;25;23;
71858;PMS5003;59713;50.866;4.324;2022-12-07T19:47:19;29;24;
71858;PMS5003;59713;50.866;4.324;2022-12-07T19:50:19;23;19;
71858;PMS5003;59713;50.866;4.324;2022-12-07T19:53:19;31;26;
71858;PMS5003;59713;50.866;4.324;2022-12-07T19:56:19;29;29;
71858;PMS5003;59713;50.866;4.324;2022-12-07T19:59:20;23;20;
71858;PMS5003;59713;50.866;4.324;2022-12-07T20:02:19;19;18;
71858;PMS5003;59713;50.866;4.324;2022-12-07T20:05:19;15;11;
71858;PMS5003;59713;50.866;4.324;2022-12-07T20:08:19;24;23;
71858;PMS5003;59713;50.866;4.324;2022-12-07T20:11:19;26;23;
71858;PMS5003;59713;50.866;4.324;2022-12-07T20:14:19;22;16;
71858;PMS5003;59713;50.866;4.324;2022-12-07T20:17:19;29;24;
71858;PMS5003;59713;50.866;4.324;2022-12-07T20:20:20;24;22;
71858;PMS5003;59713;50.866;4.324;2022-12-07T20:23:19;30;27;
71858;PMS5003;59713;50.866;4.324;2022-12-07T20:26:19;27;23;
71858;PMS5003;59713;50.866;4.324;2022-12-07T20:29:20;19;17;
71858;PMS5003;59713;50.866;4.324;2022-12-07T20:32:19;24;23;
71858;PMS5003;59713;50.866;4.324;2022-12-07T20:35:19;22;16;
71858;PMS5003;59713;50.866;4.324;2022-12-07T20:38:19;23;19;
71858;PMS5003;59713;50.866;4.324;2022-12-07T20:41:19;26;19;
71858;PMS5003;59713;50.866;4.324;2022-12-07T20:44:19;12;11;
71858;PMS5003;59713;50.866;4.324;2022-12-07T20:47:19;24;22;
71858;PMS5003;59713;50.866;4.324;2022-12-07T20:50:19;19;18;
71858;PMS5003;59713;50.866;4.324;2022-12-07T20:53:19;20;20;
71858;PMS5003;59713;50.866;4.324;2022-12-07T20:56:20;22;16;
71858;PMS5003;59713;50.866;4.324;2022-12-07T20:59:19;18;16;
71858;PMS5003;59713;50.866;4.324;2022-12-07T21:02:19;22;19;
71858;PMS5003;59713;50.866;4.324;2022-12-07T21:05:19;18;17;
71858;PMS5003;59713;50.866;4.324;2022-12-07T21:08:19;14;14;
71858;PMS5003;59713;50.866;4.324;2022-12-07T21:11:20;20;18;
71858;PMS5003;59713;50.866;4.324;2022-12-07T21:14:19;19;15;
71858;PMS5003;59713;50.866;4.324;2022-12-07T21:17:19;15;15;
71858;PMS5003;59713;50.866;4.324;2022-12-07T21:20:19;17;15;
71858;PMS5003;59713;50.866;4.324;2022-12-07T21:23:19;18;17;
71858;PMS5003;59713;50.866;4.324;2022-12-07T21:26:20;19;16;
71858;PMS5003;59713;50.866;4.324;2022-12-07T21:29:19;23;20;
71858;PMS5003;59713;50.866;4.324;2022-12-07T21:32:19;18;16;
71858;PMS5003;59713;50.866;4.324;2022-12-07T21:35:19;16;13;
71858;PMS5003;59713;50.866;4.324;2022-12-07T21:38:19;18;16;
71858;PMS5003;59713;50.866;4.324;2022-12-07T21:44:19;16;15;
71858;PMS5003;59713;50.866;4.324;2022-12-07T21:50:19;18;16;
71858;PMS5003;59713;50.866;4.324;2022-12-07T21:53:19;16;15;
71858;PMS5003;59713;50.866;4.324;2022-12-07T21:56:20;12;11;
71858;PMS5003;59713;50.866;4.324;2022-12-07T22:02:19;11;10;
71858;PMS5003;59713;50.866;4.324;2022-12-07T22:05:19;21;19;
71858;PMS5003;59713;50.866;4.324;2022-12-07T22:08:19;17;13;
71858;PMS5003;59713;50.866;4.324;2022-12-07T22:11:19;10;10;
71858;PMS5003;59713;50.866;4.324;2022-12-07T22:14:19;18;16;
71858;PMS5003;59713;50.866;4.324;2022-12-07T22:17:19;11;9;
71858;PMS5003;59713;50.866;4.324;2022-12-07T22:20:20;16;14;
71858;PMS5003;59713;50.866;4.324;2022-12-07T22:23:19;15;13;
71858;PMS5003;59713;50.866;4.324;2022-12-07T22:26:19;21;16;
71858;PMS5003;59713;50.866;4.324;2022-12-07T22:29:19;18;15;
71858;PMS5003;59713;50.866;4.324;2022-12-07T22:32:19;15;14;
71858;PMS5003;59713;50.866;4.324;2022-12-07T22:35:19;18;17;
71858;PMS5003;59713;50.866;4.324;2022-12-07T22:38:19;20;15;